Terminal Aerodrome Forecast
Issued by NWS

Home | Current Version | Previous Version | Text Only | Print | Product List | Glossary On
Versions: 1 2 3 4 5 6 7 8 9 10 11 12 13 14 15 16
000
FTUS43 KFGF 240520
TAFBJI
TAF
KBJI 240520Z 2406/2506 VRB03KT P6SM BKN060
      TEMPO 2407/2410 2SM BR
     FM241000 VRB04KT 4SM BR FEW100
      TEMPO 2410/2413 1/2SM FG SCT003
     FM241500 11006KT P6SM SKC
     FM241700 11008KT P6SM FEW050=

USA.gov is the U.S. government's official web portal to all federal, state and local government web resources and services.